Aviation Digital Data Service (ADDS)

Output produced by METARs form (1852 UTC 24 June 2017)
found at http://aviationweather.gov/adds/metars/
 
KPIT 241722Z 2418/2524 24011G16KT P6SM SCT070 SCT250 
     FM250100 28005KT P6SM SCT250